sensor_id;sensor_type;location;lat;lon;timestamp;pressure;altitude;pressure_sealevel;temperature;humidity
61528;BME280;47395;42.032;-8.634;2023-05-01T00:01:29;101270.13;;;16.37;78.57
61528;BME280;47395;42.032;-8.634;2023-05-01T00:03:29;101268.59;;;16.33;78.88
61528;BME280;47395;42.032;-8.634;2023-05-01T00:05:30;101271.56;;;16.28;78.88
61528;BME280;47395;42.032;-8.634;2023-05-01T00:07:31;101277.31;;;16.22;79.01
61528;BME280;47395;42.032;-8.634;2023-05-01T00:09:32;101280.16;;;16.18;78.73
61528;BME280;47395;42.032;-8.634;2023-05-01T00:11:34;101277.53;;;16.04;78.48
61528;BME280;47395;42.032;-8.634;2023-05-01T00:13:37;101274.63;;;15.92;78.91
61528;BME280;47395;42.032;-8.634;2023-05-01T00:15:40;101281.75;;;15.92;79.31
61528;BME280;47395;42.032;-8.634;2023-05-01T00:17:41;101271.50;;;15.86;79.02
61528;BME280;47395;42.032;-8.634;2023-05-01T00:19:42;101267.53;;;15.78;79.56
61528;BME280;47395;42.032;-8.634;2023-05-01T00:21:46;101266.09;;;15.73;79.84
61528;BME280;47395;42.032;-8.634;2023-05-01T00:23:47;101262.69;;;15.71;80.08
61528;BME280;47395;42.032;-8.634;2023-05-01T00:25:48;101263.56;;;15.71;79.92
61528;BME280;47395;42.032;-8.634;2023-05-01T00:27:49;101258.63;;;15.65;79.97
61528;BME280;47395;42.032;-8.634;2023-05-01T00:29:50;101256.34;;;15.59;80.50
61528;BME280;47395;42.032;-8.634;2023-05-01T00:31:51;101251.13;;;15.57;80.68
61528;BME280;47395;42.032;-8.634;2023-05-01T00:33:53;101247.72;;;15.55;80.89
61528;BME280;47395;42.032;-8.634;2023-05-01T00:35:54;101247.81;;;15.53;81.03
61528;BME280;47395;42.032;-8.634;2023-05-01T00:37:55;101246.28;;;15.49;80.72
61528;BME280;47395;42.032;-8.634;2023-05-01T00:39:56;101256.06;;;15.49;80.78
61528;BME280;47395;42.032;-8.634;2023-05-01T00:41:57;101254.25;;;15.49;81.05
61528;BME280;47395;42.032;-8.634;2023-05-01T00:43:58;101242.94;;;15.46;80.59
61528;BME280;47395;42.032;-8.634;2023-05-01T00:45:59;101244.00;;;15.43;80.65
61528;BME280;47395;42.032;-8.634;2023-05-01T00:47:59;101244.88;;;15.44;80.49
61528;BME280;47395;42.032;-8.634;2023-05-01T00:50:01;101236.91;;;15.44;80.69
61528;BME280;47395;42.032;-8.634;2023-05-01T00:52:03;101237.00;;;15.42;80.81
61528;BME280;47395;42.032;-8.634;2023-05-01T00:54:04;101230.72;;;15.43;81.23
61528;BME280;47395;42.032;-8.634;2023-05-01T00:56:06;101227.88;;;15.46;81.25
61528;BME280;47395;42.032;-8.634;2023-05-01T00:58:09;101227.88;;;15.46;81.21
61528;BME280;47395;42.032;-8.634;2023-05-01T01:00:11;101220.66;;;15.48;81.23
61528;BME280;47395;42.032;-8.634;2023-05-01T01:02:13;101216.41;;;15.46;81.12
61528;BME280;47395;42.032;-8.634;2023-05-01T01:04:14;101215.25;;;15.50;81.91
61528;BME280;47395;42.032;-8.634;2023-05-01T01:06:23;101209.69;;;15.55;81.88
61528;BME280;47395;42.032;-8.634;2023-05-01T01:08:48;101204.66;;;15.64;81.73
61528;BME280;47395;42.032;-8.634;2023-05-01T01:13:29;101201.72;;;15.40;82.47
61528;BME280;47395;42.032;-8.634;2023-05-01T01:15:56;101201.41;;;15.59;83.56
61528;BME280;47395;42.032;-8.634;2023-05-01T01:18:39;101196.34;;;15.84;82.63
61528;BME280;47395;42.032;-8.634;2023-05-01T01:21:33;101191.41;;;15.92;80.81
61528;BME280;47395;42.032;-8.634;2023-05-01T01:31:38;101188.28;;;16.27;80.55
61528;BME280;47395;42.032;-8.634;2023-05-01T01:34:03;101188.16;;;16.16;79.11
61528;BME280;47395;42.032;-8.634;2023-05-01T01:36:18;101187.94;;;16.19;78.79
61528;BME280;47395;42.032;-8.634;2023-05-01T01:38:35;101184.53;;;16.17;80.09
61528;BME280;47395;42.032;-8.634;2023-05-01T01:40:54;101179.88;;;16.21;80.08
61528;BME280;47395;42.032;-8.634;2023-05-01T01:43:02;101175.09;;;16.26;80.67
61528;BME280;47395;42.032;-8.634;2023-05-01T01:45:10;101171.19;;;16.31;80.22
61528;BME280;47395;42.032;-8.634;2023-05-01T01:47:13;101175.16;;;16.39;79.27
61528;BME280;47395;42.032;-8.634;2023-05-01T01:49:19;101177.28;;;16.47;79.73
61528;BME280;47395;42.032;-8.634;2023-05-01T01:51:24;101167.19;;;16.39;79.31
61528;BME280;47395;42.032;-8.634;2023-05-01T01:53:28;101167.53;;;16.47;79.85
61528;BME280;47395;42.032;-8.634;2023-05-01T01:55:32;101162.94;;;16.49;79.99
61528;BME280;47395;42.032;-8.634;2023-05-01T01:57:37;101158.38;;;16.51;79.59
61528;BME280;47395;42.032;-8.634;2023-05-01T01:59:40;101152.19;;;16.38;77.89
61528;BME280;47395;42.032;-8.634;2023-05-01T02:01:42;101162.31;;;16.46;80.00
61528;BME280;47395;42.032;-8.634;2023-05-01T02:03:45;101153.88;;;16.39;79.12
61528;BME280;47395;42.032;-8.634;2023-05-01T02:05:48;101154.63;;;16.41;79.00
61528;BME280;47395;42.032;-8.634;2023-05-01T02:07:50;101154.53;;;16.42;78.27
61528;BME280;47395;42.032;-8.634;2023-05-01T02:09:52;101155.47;;;16.28;77.20
61528;BME280;47395;42.032;-8.634;2023-05-01T02:11:55;101155.09;;;16.20;77.73
61528;BME280;47395;42.032;-8.634;2023-05-01T02:13:58;101153.44;;;16.04;79.38
61528;BME280;47395;42.032;-8.634;2023-05-01T02:16:02;101149.28;;;16.00;79.53
61528;BME280;47395;42.032;-8.634;2023-05-01T02:18:04;101154.69;;;15.99;79.00
61528;BME280;47395;42.032;-8.634;2023-05-01T02:20:07;101151.63;;;15.63;79.60
61528;BME280;47395;42.032;-8.634;2023-05-01T02:22:10;101137.03;;;15.56;79.56
61528;BME280;47395;42.032;-8.634;2023-05-01T02:24:12;101141.50;;;15.55;79.63
61528;BME280;47395;42.032;-8.634;2023-05-01T02:26:15;101144.16;;;15.40;80.01
61528;BME280;47395;42.032;-8.634;2023-05-01T02:28:22;101141.50;;;15.40;79.89
61528;BME280;47395;42.032;-8.634;2023-05-01T02:30:23;101141.44;;;15.13;80.13
61528;BME280;47395;42.032;-8.634;2023-05-01T02:32:24;101152.06;;;15.13;80.48
61528;BME280;47395;42.032;-8.634;2023-05-01T02:34:26;101152.22;;;15.10;80.63
61528;BME280;47395;42.032;-8.634;2023-05-01T02:36:27;101148.81;;;15.08;80.85
61528;BME280;47395;42.032;-8.634;2023-05-01T02:38:28;101147.56;;;14.99;80.78
61528;BME280;47395;42.032;-8.634;2023-05-01T02:40:29;101147.00;;;14.94;80.92
61528;BME280;47395;42.032;-8.634;2023-05-01T02:42:32;101142.38;;;14.97;81.04
61528;BME280;47395;42.032;-8.634;2023-05-01T02:44:39;101140.84;;;14.93;80.78
61528;BME280;47395;42.032;-8.634;2023-05-01T02:46:44;101135.06;;;14.86;80.74
61528;BME280;47395;42.032;-8.634;2023-05-01T02:48:47;101138.25;;;14.77;81.00
61528;BME280;47395;42.032;-8.634;2023-05-01T02:50:50;101143.72;;;14.74;81.07
61528;BME280;47395;42.032;-8.634;2023-05-01T02:52:51;101136.13;;;14.68;81.31
61528;BME280;47395;42.032;-8.634;2023-05-01T02:55:05;101153.84;;;14.67;81.34
61528;BME280;47395;42.032;-8.634;2023-05-01T02:57:06;101148.03;;;14.60;81.42
61528;BME280;47395;42.032;-8.634;2023-05-01T02:59:06;101141.00;;;14.45;82.16
61528;BME280;47395;42.032;-8.634;2023-05-01T03:01:07;101155.78;;;14.49;82.39
61528;BME280;47395;42.032;-8.634;2023-05-01T03:03:08;101157.84;;;14.44;82.43
61528;BME280;47395;42.032;-8.634;2023-05-01T03:05:10;101161.22;;;14.31;82.82
61528;BME280;47395;42.032;-8.634;2023-05-01T03:07:11;101162.47;;;14.40;82.59
61528;BME280;47395;42.032;-8.634;2023-05-01T03:09:12;101155.19;;;14.44;82.39
61528;BME280;47395;42.032;-8.634;2023-05-01T03:11:12;101157.94;;;14.42;82.28
61528;BME280;47395;42.032;-8.634;2023-05-01T03:13:15;101161.44;;;14.43;82.02
61528;BME280;47395;42.032;-8.634;2023-05-01T03:15:16;101170.25;;;14.43;82.20
61528;BME280;47395;42.032;-8.634;2023-05-01T03:17:18;101167.59;;;14.43;81.83
61528;BME280;47395;42.032;-8.634;2023-05-01T03:19:19;101174.97;;;14.38;81.53
61528;BME280;47395;42.032;-8.634;2023-05-01T03:21:20;101171.63;;;14.34;81.63
61528;BME280;47395;42.032;-8.634;2023-05-01T03:23:21;101172.75;;;14.30;81.29
61528;BME280;47395;42.032;-8.634;2023-05-01T03:25:23;101176.50;;;14.26;81.20
61528;BME280;47395;42.032;-8.634;2023-05-01T03:27:24;101185.59;;;14.22;81.26
61528;BME280;47395;42.032;-8.634;2023-05-01T03:29:25;101187.72;;;14.15;81.62
61528;BME280;47395;42.032;-8.634;2023-05-01T03:31:27;101179.97;;;14.12;82.10
61528;BME280;47395;42.032;-8.634;2023-05-01T03:33:29;101183.44;;;14.13;82.47
61528;BME280;47395;42.032;-8.634;2023-05-01T03:35:31;101186.28;;;14.09;82.40
61528;BME280;47395;42.032;-8.634;2023-05-01T03:37:32;101196.81;;;14.11;82.30
61528;BME280;47395;42.032;-8.634;2023-05-01T03:39:33;101194.25;;;14.09;82.75
61528;BME280;47395;42.032;-8.634;2023-05-01T03:41:57;101191.91;;;14.03;83.05
61528;BME280;47395;42.032;-8.634;2023-05-01T03:44:01;101199.03;;;14.03;83.36
61528;BME280;47395;42.032;-8.634;2023-05-01T03:46:28;101199.94;;;14.02;83.78
61528;BME280;47395;42.032;-8.634;2023-05-01T03:48:30;101200.91;;;14.01;83.27
61528;BME280;47395;42.032;-8.634;2023-05-01T03:50:30;101206.28;;;13.99;82.96
61528;BME280;47395;42.032;-8.634;2023-05-01T03:52:31;101202.19;;;13.93;82.34
61528;BME280;47395;42.032;-8.634;2023-05-01T03:54:34;101208.25;;;13.95;81.96
61528;BME280;47395;42.032;-8.634;2023-05-01T03:56:56;101197.81;;;13.92;82.21
61528;BME280;47395;42.032;-8.634;2023-05-01T03:58:59;101194.41;;;13.90;82.22
61528;BME280;47395;42.032;-8.634;2023-05-01T04:01:00;101190.16;;;13.88;82.32
61528;BME280;47395;42.032;-8.634;2023-05-01T04:03:18;101190.16;;;13.88;82.42
61528;BME280;47395;42.032;-8.634;2023-05-01T04:05:21;101187.56;;;13.86;82.16
61528;BME280;47395;42.032;-8.634;2023-05-01T04:07:27;101198.16;;;13.86;82.11
61528;BME280;47395;42.032;-8.634;2023-05-01T04:09:28;101203.47;;;13.86;82.08
61528;BME280;47395;42.032;-8.634;2023-05-01T04:11:32;101201.94;;;13.82;82.60
61528;BME280;47395;42.032;-8.634;2023-05-01T04:13:33;101207.91;;;13.86;83.07
61528;BME280;47395;42.032;-8.634;2023-05-01T04:15:35;101196.97;;;13.92;82.97
61528;BME280;47395;42.032;-8.634;2023-05-01T04:17:36;101209.13;;;13.96;83.13
61528;BME280;47395;42.032;-8.634;2023-05-01T04:19:37;101205.53;;;13.97;83.58
61528;BME280;47395;42.032;-8.634;2023-05-01T04:21:38;101210.53;;;14.02;83.54
61528;BME280;47395;42.032;-8.634;2023-05-01T04:23:39;101205.69;;;13.94;83.69
61528;BME280;47395;42.032;-8.634;2023-05-01T04:25:41;101206.47;;;13.96;83.44
61528;BME280;47395;42.032;-8.634;2023-05-01T04:27:50;101208.16;;;13.97;83.50
61528;BME280;47395;42.032;-8.634;2023-05-01T04:29:51;101210.16;;;13.93;83.20
61528;BME280;47395;42.032;-8.634;2023-05-01T04:31:52;101209.34;;;13.91;82.87
61528;BME280;47395;42.032;-8.634;2023-05-01T04:33:54;101215.75;;;13.87;82.58
61528;BME280;47395;42.032;-8.634;2023-05-01T04:35:54;101207.97;;;13.84;82.42
61528;BME280;47395;42.032;-8.634;2023-05-01T04:37:55;101213.19;;;13.86;82.29
61528;BME280;47395;42.032;-8.634;2023-05-01T04:39:56;101218.91;;;13.78;82.83
61528;BME280;47395;42.032;-8.634;2023-05-01T04:41:58;101213.78;;;13.75;83.28
61528;BME280;47395;42.032;-8.634;2023-05-01T04:43:59;101204.13;;;13.74;83.05
61528;BME280;47395;42.032;-8.634;2023-05-01T04:46:02;101213.19;;;13.69;83.10
61528;BME280;47395;42.032;-8.634;2023-05-01T04:48:03;101208.47;;;13.75;83.16
61528;BME280;47395;42.032;-8.634;2023-05-01T04:50:05;101206.69;;;13.75;83.56
61528;BME280;47395;42.032;-8.634;2023-05-01T04:52:06;101204.91;;;13.76;83.54
61528;BME280;47395;42.032;-8.634;2023-05-01T04:54:22;101204.81;;;13.77;83.16
61528;BME280;47395;42.032;-8.634;2023-05-01T04:56:24;101204.06;;;13.75;83.19
61528;BME280;47395;42.032;-8.634;2023-05-01T04:58:29;101200.47;;;13.76;83.49
61528;BME280;47395;42.032;-8.634;2023-05-01T05:00:35;101191.69;;;13.76;84.00
61528;BME280;47395;42.032;-8.634;2023-05-01T05:02:37;101191.69;;;13.76;84.26
61528;BME280;47395;42.032;-8.634;2023-05-01T05:04:38;101184.34;;;13.81;84.34
61528;BME280;47395;42.032;-8.634;2023-05-01T05:06:40;101189.28;;;13.87;84.64
61528;BME280;47395;42.032;-8.634;2023-05-01T05:08:46;101194.84;;;13.99;84.45
61528;BME280;47395;42.032;-8.634;2023-05-01T05:10:47;101198.00;;;14.05;84.24
61528;BME280;47395;42.032;-8.634;2023-05-01T05:12:57;101199.78;;;14.05;83.79
61528;BME280;47395;42.032;-8.634;2023-05-01T05:14:59;101199.72;;;14.06;83.83
61528;BME280;47395;42.032;-8.634;2023-05-01T05:16:59;101199.03;;;14.03;83.56
61528;BME280;47395;42.032;-8.634;2023-05-01T05:19:01;101206.91;;;14.04;83.73
61528;BME280;47395;42.032;-8.634;2023-05-01T05:21:05;101214.06;;;14.02;83.15
61528;BME280;47395;42.032;-8.634;2023-05-01T05:23:06;101207.47;;;13.77;82.37
61528;BME280;47395;42.032;-8.634;2023-05-01T05:25:08;101218.56;;;13.84;82.12
61528;BME280;47395;42.032;-8.634;2023-05-01T05:27:09;101216.94;;;13.81;82.30
61528;BME280;47395;42.032;-8.634;2023-05-01T05:29:10;101209.44;;;13.74;82.04
61528;BME280;47395;42.032;-8.634;2023-05-01T05:31:11;101226.25;;;13.73;82.35
61528;BME280;47395;42.032;-8.634;2023-05-01T05:33:12;101231.47;;;13.74;82.40
61528;BME280;47395;42.032;-8.634;2023-05-01T05:35:13;101228.56;;;13.79;82.55
61528;BME280;47395;42.032;-8.634;2023-05-01T05:37:14;101234.88;;;13.76;82.81
61528;BME280;47395;42.032;-8.634;2023-05-01T05:39:22;101242.41;;;13.84;82.74
61528;BME280;47395;42.032;-8.634;2023-05-01T05:41:23;101236.78;;;13.90;82.85
61528;BME280;47395;42.032;-8.634;2023-05-01T05:43:28;101241.75;;;13.96;82.76
61528;BME280;47395;42.032;-8.634;2023-05-01T05:45:33;101233.72;;;13.98;82.76
61528;BME280;47395;42.032;-8.634;2023-05-01T05:47:34;101241.56;;;14.00;82.28
61528;BME280;47395;42.032;-8.634;2023-05-01T05:49:35;101253.44;;;14.08;82.25
61528;BME280;47395;42.032;-8.634;2023-05-01T05:51:36;101246.00;;;14.15;82.59
61528;BME280;47395;42.032;-8.634;2023-05-01T05:53:38;101251.84;;;14.22;82.60
61528;BME280;47395;42.032;-8.634;2023-05-01T05:55:39;101252.84;;;14.19;82.31
61528;BME280;47395;42.032;-8.634;2023-05-01T05:57:40;101247.91;;;14.29;82.41
61528;BME280;47395;42.032;-8.634;2023-05-01T05:59:43;101254.66;;;14.35;81.80
61528;BME280;47395;42.032;-8.634;2023-05-01T06:01:46;101253.53;;;14.39;81.48
61528;BME280;47395;42.032;-8.634;2023-05-01T06:03:47;101263.53;;;14.50;81.31
61528;BME280;47395;42.032;-8.634;2023-05-01T06:05:48;101258.19;;;14.82;80.33
61528;BME280;47395;42.032;-8.634;2023-05-01T06:07:49;101254.03;;;15.23;78.83
61528;BME280;47395;42.032;-8.634;2023-05-01T06:09:50;101255.97;;;15.79;75.87
61528;BME280;47395;42.032;-8.634;2023-05-01T06:11:51;101248.97;;;16.35;73.22
61528;BME280;47395;42.032;-8.634;2023-05-01T06:13:52;101240.91;;;16.90;71.31
61528;BME280;47395;42.032;-8.634;2023-05-01T06:15:54;101251.75;;;17.15;69.91
61528;BME280;47395;42.032;-8.634;2023-05-01T06:17:55;101247.25;;;17.41;69.24
61528;BME280;47395;42.032;-8.634;2023-05-01T06:19:57;101249.38;;;17.75;68.16
61528;BME280;47395;42.032;-8.634;2023-05-01T06:21:58;101255.66;;;18.49;65.60
61528;BME280;47395;42.032;-8.634;2023-05-01T06:23:59;101253.31;;;19.04;63.92
61528;BME280;47395;42.032;-8.634;2023-05-01T06:26:04;101249.44;;;19.79;60.62
61528;BME280;47395;42.032;-8.634;2023-05-01T06:28:05;101255.88;;;20.76;58.04
61528;BME280;47395;42.032;-8.634;2023-05-01T06:30:08;101254.13;;;21.29;56.23
61528;BME280;47395;42.032;-8.634;2023-05-01T06:32:11;101267.22;;;21.01;56.08
61528;BME280;47395;42.032;-8.634;2023-05-01T06:34:12;101261.34;;;21.07;55.84
61528;BME280;47395;42.032;-8.634;2023-05-01T06:36:21;101259.63;;;21.59;54.88
61528;BME280;47395;42.032;-8.634;2023-05-01T06:38:22;101256.22;;;22.88;51.43
61528;BME280;47395;42.032;-8.634;2023-05-01T06:40:23;101263.53;;;23.64;49.49
61528;BME280;47395;42.032;-8.634;2023-05-01T06:42:24;101267.47;;;24.25;47.89
61528;BME280;47395;42.032;-8.634;2023-05-01T06:44:30;101273.03;;;23.96;48.19
61528;BME280;47395;42.032;-8.634;2023-05-01T06:46:31;101258.09;;;24.48;45.56
61528;BME280;47395;42.032;-8.634;2023-05-01T06:48:32;101269.28;;;25.51;44.53
61528;BME280;47395;42.032;-8.634;2023-05-01T06:50:33;101265.72;;;26.28;42.76
61528;BME280;47395;42.032;-8.634;2023-05-01T06:52:34;101276.25;;;26.65;41.40
61528;BME280;47395;42.032;-8.634;2023-05-01T06:54:34;101271.34;;;27.02;40.92
61528;BME280;47395;42.032;-8.634;2023-05-01T06:56:35;101283.44;;;27.47;40.03
61528;BME280;47395;42.032;-8.634;2023-05-01T06:58:36;101284.59;;;27.53;39.72
61528;BME280;47395;42.032;-8.634;2023-05-01T07:00:37;101285.69;;;27.84;39.16
61528;BME280;47395;42.032;-8.634;2023-05-01T07:02:38;101293.22;;;27.57;39.52
61528;BME280;47395;42.032;-8.634;2023-05-01T07:04:40;101296.31;;;27.94;38.44
61528;BME280;47395;42.032;-8.634;2023-05-01T07:06:43;101287.75;;;27.00;40.84
61528;BME280;47395;42.032;-8.634;2023-05-01T07:08:44;101287.81;;;27.57;39.39
61528;BME280;47395;42.032;-8.634;2023-05-01T07:10:45;101293.75;;;27.44;40.11
61528;BME280;47395;42.032;-8.634;2023-05-01T07:12:46;101289.75;;;28.20;37.97
61528;BME280;47395;42.032;-8.634;2023-05-01T07:14:47;101286.59;;;28.39;38.40
61528;BME280;47395;42.032;-8.634;2023-05-01T07:16:47;101287.25;;;28.41;38.41
61528;BME280;47395;42.032;-8.634;2023-05-01T07:18:48;101292.06;;;28.78;37.26
61528;BME280;47395;42.032;-8.634;2023-05-01T07:20:49;101296.75;;;29.08;36.78
61528;BME280;47395;42.032;-8.634;2023-05-01T07:22:50;101291.56;;;29.51;35.67
61528;BME280;47395;42.032;-8.634;2023-05-01T07:24:52;101296.50;;;30.52;35.13
61528;BME280;47395;42.032;-8.634;2023-05-01T07:26:53;101294.03;;;30.57;34.68
61528;BME280;47395;42.032;-8.634;2023-05-01T07:28:55;101297.97;;;29.95;35.68
61528;BME280;47395;42.032;-8.634;2023-05-01T07:30:56;101295.38;;;29.27;35.96
61528;BME280;47395;42.032;-8.634;2023-05-01T07:32:57;101301.13;;;30.14;33.92
61528;BME280;47395;42.032;-8.634;2023-05-01T07:34:58;101304.19;;;30.70;34.93
61528;BME280;47395;42.032;-8.634;2023-05-01T07:36:59;101302.66;;;31.39;33.50
61528;BME280;47395;42.032;-8.634;2023-05-01T07:39:01;101304.34;;;31.12;33.50
61528;BME280;47395;42.032;-8.634;2023-05-01T07:41:01;101312.66;;;31.32;33.43
61528;BME280;47395;42.032;-8.634;2023-05-01T07:43:02;101316.59;;;32.07;32.37
61528;BME280;47395;42.032;-8.634;2023-05-01T07:45:04;101312.81;;;33.04;30.92
61528;BME280;47395;42.032;-8.634;2023-05-01T07:47:06;101314.88;;;32.82;32.13
61528;BME280;47395;42.032;-8.634;2023-05-01T07:49:08;101321.84;;;33.91;29.34
61528;BME280;47395;42.032;-8.634;2023-05-01T07:51:09;101316.13;;;34.38;29.80
61528;BME280;47395;42.032;-8.634;2023-05-01T07:53:10;101323.41;;;34.84;28.72
61528;BME280;47395;42.032;-8.634;2023-05-01T07:55:10;101318.97;;;34.83;27.41
61528;BME280;47395;42.032;-8.634;2023-05-01T07:57:11;101319.28;;;35.19;27.21
61528;BME280;47395;42.032;-8.634;2023-05-01T07:59:12;101317.66;;;35.11;26.04
61528;BME280;47395;42.032;-8.634;2023-05-01T08:01:14;101315.97;;;35.54;26.77
61528;BME280;47395;42.032;-8.634;2023-05-01T08:03:15;101317.53;;;35.99;25.96
61528;BME280;47395;42.032;-8.634;2023-05-01T08:05:16;101325.53;;;36.31;26.02
61528;BME280;47395;42.032;-8.634;2023-05-01T08:07:17;101323.16;;;36.90;24.50
61528;BME280;47395;42.032;-8.634;2023-05-01T08:09:18;101314.91;;;36.78;25.39
61528;BME280;47395;42.032;-8.634;2023-05-01T08:11:18;101307.88;;;37.18;26.03
61528;BME280;47395;42.032;-8.634;2023-05-01T08:13:19;101314.56;;;36.98;25.29
61528;BME280;47395;42.032;-8.634;2023-05-01T08:15:20;101311.25;;;37.20;23.71
61528;BME280;47395;42.032;-8.634;2023-05-01T08:17:21;101318.72;;;37.13;24.10
61528;BME280;47395;42.032;-8.634;2023-05-01T08:19:22;101314.94;;;36.04;24.54
61528;BME280;47395;42.032;-8.634;2023-05-01T08:21:23;101306.28;;;35.14;26.21
61528;BME280;47395;42.032;-8.634;2023-05-01T08:23:24;101300.16;;;34.68;27.51
61528;BME280;47395;42.032;-8.634;2023-05-01T08:25:25;101306.47;;;35.38;27.11
61528;BME280;47395;42.032;-8.634;2023-05-01T08:27:26;101303.84;;;35.80;26.15
61528;BME280;47395;42.032;-8.634;2023-05-01T08:29:27;101303.47;;;36.26;26.40
61528;BME280;47395;42.032;-8.634;2023-05-01T08:31:28;101300.00;;;36.74;24.96
61528;BME280;47395;42.032;-8.634;2023-05-01T08:33:28;101302.97;;;37.85;24.61
61528;BME280;47395;42.032;-8.634;2023-05-01T08:35:29;101304.72;;;37.91;23.97
61528;BME280;47395;42.032;-8.634;2023-05-01T08:37:30;101304.53;;;36.80;24.92
61528;BME280;47395;42.032;-8.634;2023-05-01T08:39:31;101301.00;;;37.56;24.72
61528;BME280;47395;42.032;-8.634;2023-05-01T08:41:33;101296.91;;;38.29;23.41
61528;BME280;47395;42.032;-8.634;2023-05-01T08:43:35;101302.59;;;38.57;22.94
61528;BME280;47395;42.032;-8.634;2023-05-01T08:45:36;101299.91;;;38.45;23.56
61528;BME280;47395;42.032;-8.634;2023-05-01T08:47:38;101297.44;;;38.77;22.71
61528;BME280;47395;42.032;-8.634;2023-05-01T08:49:40;101291.63;;;37.81;23.68
61528;BME280;47395;42.032;-8.634;2023-05-01T08:51:44;101294.59;;;38.38;24.13
61528;BME280;47395;42.032;-8.634;2023-05-01T08:53:47;101290.75;;;37.40;24.55
61528;BME280;47395;42.032;-8.634;2023-05-01T08:55:54;101289.19;;;37.68;24.76
61528;BME280;47395;42.032;-8.634;2023-05-01T08:57:56;101291.25;;;37.90;23.84
61528;BME280;47395;42.032;-8.634;2023-05-01T08:59:58;101292.69;;;38.09;23.53
61528;BME280;47395;42.032;-8.634;2023-05-01T09:02:01;101298.56;;;36.95;24.23
61528;BME280;47395;42.032;-8.634;2023-05-01T09:04:05;101299.25;;;38.20;23.82
61528;BME280;47395;42.032;-8.634;2023-05-01T09:06:07;101295.00;;;38.47;22.88
61528;BME280;47395;42.032;-8.634;2023-05-01T09:08:10;101299.06;;;38.96;22.57
61528;BME280;47395;42.032;-8.634;2023-05-01T09:10:15;101304.50;;;38.90;22.74
61528;BME280;47395;42.032;-8.634;2023-05-01T09:12:22;101301.31;;;38.13;22.39
61528;BME280;47395;42.032;-8.634;2023-05-01T09:14:24;101293.09;;;37.60;23.28
61528;BME280;47395;42.032;-8.634;2023-05-01T09:16:25;101294.09;;;37.95;23.04
61528;BME280;47395;42.032;-8.634;2023-05-01T09:18:26;101289.56;;;38.18;24.06
61528;BME280;47395;42.032;-8.634;2023-05-01T09:20:27;101297.16;;;37.98;24.26
61528;BME280;47395;42.032;-8.634;2023-05-01T09:22:29;101301.94;;;38.49;23.08
61528;BME280;47395;42.032;-8.634;2023-05-01T09:24:30;101293.47;;;37.93;23.84
61528;BME280;47395;42.032;-8.634;2023-05-01T09:26:31;101295.56;;;38.15;24.02
61528;BME280;47395;42.032;-8.634;2023-05-01T09:30:44;101290.94;;;37.74;23.64
61528;BME280;47395;42.032;-8.634;2023-05-01T09:32:45;101286.56;;;38.36;23.20
61528;BME280;47395;42.032;-8.634;2023-05-01T09:35:13;101294.25;;;38.51;23.35
61528;BME280;47395;42.032;-8.634;2023-05-01T09:37:28;101295.91;;;38.87;22.94
61528;BME280;47395;42.032;-8.634;2023-05-01T09:39:29;101294.31;;;38.57;23.75
61528;BME280;47395;42.032;-8.634;2023-05-01T09:41:30;101304.75;;;38.37;23.43
61528;BME280;47395;42.032;-8.634;2023-05-01T09:43:32;101301.38;;;39.04;23.47
61528;BME280;47395;42.032;-8.634;2023-05-01T09:45:33;101295.91;;;38.06;25.19
61528;BME280;47395;42.032;-8.634;2023-05-01T09:47:35;101294.75;;;38.83;22.11
61528;BME280;47395;42.032;-8.634;2023-05-01T09:49:44;101303.28;;;37.59;24.42
61528;BME280;47395;42.032;-8.634;2023-05-01T09:51:48;101290.31;;;37.84;24.27
61528;BME280;47395;42.032;-8.634;2023-05-01T09:53:49;101302.19;;;38.02;25.67
61528;BME280;47395;42.032;-8.634;2023-05-01T09:56:00;101297.59;;;39.05;23.21
61528;BME280;47395;42.032;-8.634;2023-05-01T09:58:02;101303.16;;;38.42;23.68
61528;BME280;47395;42.032;-8.634;2023-05-01T10:00:04;101306.19;;;39.09;22.65
61528;BME280;47395;42.032;-8.634;2023-05-01T10:02:26;101301.31;;;38.99;23.27
61528;BME280;47395;42.032;-8.634;2023-05-01T10:04:33;101298.06;;;39.64;23.49
61528;BME280;47395;42.032;-8.634;2023-05-01T10:06:35;101304.78;;;39.28;23.83
61528;BME280;47395;42.032;-8.634;2023-05-01T10:08:49;101300.56;;;39.65;22.12
61528;BME280;47395;42.032;-8.634;2023-05-01T10:11:02;101298.81;;;39.37;22.89
61528;BME280;47395;42.032;-8.634;2023-05-01T10:13:17;101301.19;;;38.88;23.29
61528;BME280;47395;42.032;-8.634;2023-05-01T10:15:18;101298.41;;;39.06;22.95
61528;BME280;47395;42.032;-8.634;2023-05-01T10:17:22;101297.00;;;38.69;23.46
61528;BME280;47395;42.032;-8.634;2023-05-01T10:19:24;101300.59;;;38.86;22.84
61528;BME280;47395;42.032;-8.634;2023-05-01T10:21:25;101297.03;;;39.25;23.86
61528;BME280;47395;42.032;-8.634;2023-05-01T10:23:27;101297.22;;;39.41;23.49
61528;BME280;47395;42.032;-8.634;2023-05-01T10:25:30;101296.00;;;39.99;22.15
61528;BME280;47395;42.032;-8.634;2023-05-01T10:27:32;101297.63;;;39.50;23.30
61528;BME280;47395;42.032;-8.634;2023-05-01T10:29:34;101300.53;;;39.88;22.58
61528;BME280;47395;42.032;-8.634;2023-05-01T10:31:38;101303.59;;;40.14;21.50
61528;BME280;47395;42.032;-8.634;2023-05-01T10:33:39;101293.69;;;39.68;23.58
61528;BME280;47395;42.032;-8.634;2023-05-01T10:35:44;101304.84;;;39.78;20.57
61528;BME280;47395;42.032;-8.634;2023-05-01T10:37:54;101296.59;;;40.39;22.12
61528;BME280;47395;42.032;-8.634;2023-05-01T10:39:58;101304.78;;;40.56;22.65
61528;BME280;47395;42.032;-8.634;2023-05-01T10:44:21;101295.47;;;39.79;22.98
61528;BME280;47395;42.032;-8.634;2023-05-01T10:48:58;101291.91;;;39.12;21.27
61528;BME280;47395;42.032;-8.634;2023-05-01T10:51:20;101292.16;;;39.10;23.52
61528;BME280;47395;42.032;-8.634;2023-05-01T10:53:21;101294.75;;;40.17;22.44
61528;BME280;47395;42.032;-8.634;2023-05-01T10:57:44;101297.38;;;40.01;21.23